This is the latest recevied weather packets stored in our database for station/object N3MFL. If no packets are shown the sender has not sent any weather packets the latest 10 day(s).
| Time | Temp. | Humidity | Pressure | Rain* | Wind** | Luminosity | Snow |
|---|---|---|---|---|---|---|---|
| 1777821384 | 7.78° C | 79% | 1007.2 hPa | 0 mm | - | 124 W/m² | - |
| 1777820474 | 7.78° C | 81% | 1007.2 hPa | 0 mm | - | 103 W/m² | - |
| 1777820171 | 7.78° C | 82% | 1007.1 hPa | 0 mm | - | 140 W/m² | - |
| 1777818959 | 7.22° C | 80% | 1007.2 hPa | 0 mm | - | 74 W/m² | - |
| 1777818353 | 8.89° C | 66% | 1007.1 hPa | 0 mm | - | 52 W/m² | - |
| 1777817444 | 10° C | 63% | 1006.8 hPa | 0 mm | - | 157 W/m² | - |
| 1777812596 | 8.89° C | 64% | 1007 hPa | 0 mm | - | 169 W/m² | - |
| 1777809568 | 8.33° C | 64% | 1007.5 hPa | 0 mm | - | 210 W/m² | - |
| 1777807752 | 6.67° C | 69% | 1007.7 hPa | 0 mm | - | 102 W/m² | - |
| 1777804111 | 6.11° C | 69% | 1007.8 hPa | 0 mm | - | 21 W/m² | - |
| 1777803503 | 6.11° C | 70% | 1007.7 hPa | 0 mm | - | 13 W/m² | - |
| 1777802898 | 6.67° C | 69% | 1007.9 hPa | 0 mm | - | 7 W/m² | - |
| 1777802596 | 6.67° C | 70% | 1007.9 hPa | 0 mm | - | 5 W/m² | - |
| 1777801992 | 6.67° C | 69% | 1008 hPa | 0 mm | - | 4 W/m² | - |
| 1777801076 | 6.67° C | 68% | 1007.9 hPa | 0 mm | - | 1 W/m² | - |
| 1777800773 | 6.67° C | 68% | 1007.8 hPa | 0 mm | - | 1 W/m² | - |
| 1777800468 | 6.67° C | 67% | 1007.9 hPa | 0 mm | - | 0 W/m² | - |
| 1777800166 | 6.67° C | 69% | 1007.7 hPa | 0 mm | - | 0 W/m² | - |
| 1777799865 | 6.67° C | 69% | 1007.8 hPa | 0 mm | - | 0 W/m² | - |
| 1777799563 | 6.67° C | 69% | 1008.1 hPa | 0 mm | - | 0 W/m² | - |
| 1777799258 | 6.67° C | 69% | 1007.9 hPa | 0 mm | - | 0 W/m² | - |
| 1777798955 | 6.67° C | 68% | 1008 hPa | 0 mm | - | 0 W/m² | - |
| 1777798650 | 6.67° C | 68% | 1008.2 hPa | 0 mm | - | 0 W/m² | - |
| 1777798348 | 7.22° C | 68% | 1008.5 hPa | 0 mm | - | 0 W/m² | - |
| 1777798044 | 7.22° C | 67% | 1008.2 hPa | 0 mm | - | 0 W/m² | - |
* Rain latest hour (hover to see other rain measurements)
** Current wind speed in m/s (hover to see current wind gust speed)